createdAt,value
2022-11-02T00:02:17.324Z,98212.44
2022-11-02T00:04:44.846Z,98212.13
2022-11-02T00:07:12.249Z,98218.09
2022-11-02T00:09:39.780Z,98212.00
2022-11-02T00:12:07.563Z,98219.75
2022-11-02T00:14:35.111Z,98217.97
2022-11-02T00:17:02.588Z,98223.66
2022-11-02T00:19:30.609Z,98221.84
2022-11-02T00:21:59.001Z,98225.09
2022-11-02T00:24:26.489Z,98229.19
2022-11-02T00:26:55.155Z,98227.31
2022-11-02T00:29:24.420Z,98236.13
2022-11-02T00:31:51.936Z,98222.59
2022-11-02T00:34:19.624Z,98232.06
2022-11-02T00:36:50.598Z,98234.75
2022-11-02T00:39:20.609Z,98237.84
2022-11-02T00:41:48.115Z,98233.38
2022-11-02T00:44:15.597Z,98242.84
2022-11-02T00:46:43.016Z,98242.25
2022-11-02T00:49:10.467Z,98248.22
2022-11-02T00:51:37.979Z,98243.75
2022-11-02T00:54:05.587Z,98252.75
2022-11-02T00:56:34.334Z,98249.50
2022-11-02T00:59:04.394Z,98245.63
2022-11-02T01:01:32.729Z,98246.28
2022-11-02T01:04:00.347Z,98242.19
2022-11-02T01:06:27.786Z,98245.94
2022-11-02T01:08:55.251Z,98244.13
2022-11-02T01:11:24.612Z,98251.69
2022-11-02T01:13:52.472Z,98251.53
2022-11-02T01:16:20.798Z,98252.16
2022-11-02T01:18:55.158Z,98260.97
2022-11-02T01:21:23.307Z,98251.97
2022-11-02T01:23:50.907Z,98249.75
2022-11-02T01:26:18.674Z,98243.22
2022-11-02T01:28:46.150Z,98251.19
2022-11-02T01:31:13.810Z,98253.84
2022-11-02T01:33:45.927Z,98252.81
2022-11-02T01:36:15.418Z,98248.94
2022-11-02T01:38:42.973Z,98241.75
2022-11-02T01:41:12.796Z,98238.72
2022-11-02T01:43:49.319Z,98241.59
2022-11-02T01:46:21.103Z,98242.00
2022-11-02T01:48:55.904Z,98236.09
2022-11-02T01:51:29.596Z,98235.47
2022-11-02T01:54:02.869Z,98235.91
2022-11-02T01:56:33.176Z,98227.72
2022-11-02T01:59:06.746Z,98234.69
2022-11-02T02:01:34.522Z,98232.44
2022-11-02T02:04:02.944Z,98232.25
2022-11-02T02:06:35.991Z,98238.81
2022-11-02T02:09:07.496Z,98233.91
2022-11-02T02:11:38.483Z,98232.28
2022-11-02T02:14:24.896Z,98232.72
2022-11-02T02:17:20.109Z,98236.81
2022-11-02T02:20:02.289Z,98231.25
2022-11-02T02:22:43.410Z,98229.22
2022-11-02T02:25:23.288Z,98229.81
2022-11-02T02:28:19.951Z,98233.28
2022-11-02T02:30:57.872Z,98235.28
2022-11-02T02:33:31.088Z,98233.03
2022-11-02T02:36:16.147Z,98223.41
2022-11-02T02:38:49.628Z,98232.44
2022-11-02T02:41:47.126Z,98229.19
2022-11-02T02:44:22.386Z,98233.28
2022-11-02T02:47:01.646Z,98229.41
2022-11-02T02:49:37.416Z,98229.41
2022-11-02T02:52:06.069Z,98233.47
2022-11-02T02:54:41.916Z,98234.28
2022-11-02T02:57:13.900Z,98242.09
2022-11-02T02:59:43.427Z,98237.38
2022-11-02T03:02:36.364Z,98240.66
2022-11-02T03:05:23.518Z,98235.94
2022-11-02T03:07:51.563Z,98235.13
2022-11-02T03:10:26.459Z,98245.78
2022-11-02T03:13:04.777Z,98244.53
2022-11-02T03:15:40.937Z,98253.16
2022-11-02T03:18:28.644Z,98242.69
2022-11-02T03:21:26.863Z,98245.94
2022-11-02T03:24:06.153Z,98242.69
2022-11-02T03:26:53.408Z,98242.09
2022-11-02T03:29:29.108Z,98238.63
2022-11-02T03:32:01.010Z,98235.56
2022-11-02T03:34:35.468Z,98235.75
2022-11-02T03:37:24.599Z,98242.94
2022-11-02T03:40:03.598Z,98234.13
2022-11-02T03:42:33.937Z,98235.56
2022-11-02T03:45:09.475Z,98234.53
2022-11-02T03:47:39.613Z,98239.47
2022-11-02T03:50:13.968Z,98244.78
2022-11-02T03:52:45.168Z,98244.38
2022-11-02T03:55:22.845Z,98251.09
2022-11-02T03:57:52.044Z,98251.72
2022-11-02T04:00:26.487Z,98248.44
2022-11-02T04:03:04.301Z,98255.19
2022-11-02T04:05:39.204Z,98261.09
2022-11-02T04:08:23.456Z,98262.56
2022-11-02T04:11:13.272Z,98257.03
2022-11-02T04:14:02.279Z,98258.44
2022-11-02T04:16:34.804Z,98261.72
2022-11-02T04:19:24.418Z,98252.94
2022-11-02T04:22:12.509Z,98256.63
2022-11-02T04:25:01.543Z,98250.50
2022-11-02T04:27:30.168Z,98250.09
2022-11-02T04:29:58.557Z,98258.69
2022-11-02T04:32:47.395Z,98246.63
2022-11-02T04:35:17.925Z,98247.22
2022-11-02T04:38:05.465Z,98251.31
2022-11-02T04:40:37.175Z,98252.34
2022-11-02T04:43:05.981Z,98247.03
2022-11-02T04:45:34.955Z,98250.53
2022-11-02T04:48:05.819Z,98246.19
2022-11-02T04:50:36.177Z,98244.16
2022-11-02T04:53:06.067Z,98241.50
2022-11-02T04:55:35.008Z,98239.47
2022-11-02T04:58:02.733Z,98242.97
2022-11-02T05:00:30.761Z,98233.13
2022-11-02T05:02:58.888Z,98234.56
2022-11-02T05:05:27.273Z,98234.75
2022-11-02T05:07:58.600Z,98231.28
2022-11-02T05:10:26.590Z,98245.59
2022-11-02T05:12:59.002Z,98241.28
2022-11-02T05:15:30.368Z,98237.81
2022-11-02T05:17:59.575Z,98245.19
2022-11-02T05:20:29.887Z,98246.22
2022-11-02T05:22:58.438Z,98247.44
2022-11-02T05:25:26.167Z,98245.19
2022-11-02T05:27:53.658Z,98250.06
2022-11-02T05:30:21.149Z,98240.69
2022-11-02T05:32:49.068Z,98247.41
2022-11-02T05:35:16.673Z,98243.34
2022-11-02T05:37:45.407Z,98250.72
2022-11-02T05:40:14.068Z,98249.50
2022-11-02T05:42:41.613Z,98254.59
2022-11-02T05:45:10.002Z,98256.63
2022-11-02T05:47:37.488Z,98256.66
2022-11-02T05:50:05.357Z,98253.38
2022-11-02T05:52:32.780Z,98257.25
2022-11-02T05:55:00.128Z,98262.13
2022-11-02T05:57:27.563Z,98259.50
2022-11-02T05:59:55.041Z,98260.41
2022-11-02T06:02:24.763Z,98261.63
2022-11-02T06:04:53.158Z,98256.34
2022-11-02T06:07:20.683Z,98259.84
2022-11-02T06:09:48.188Z,98260.25
2022-11-02T06:12:15.603Z,98257.41
2022-11-02T06:14:43.110Z,98260.06
2022-11-02T06:17:10.590Z,98261.28
2022-11-02T06:19:38.082Z,98263.50
2022-11-02T06:22:05.588Z,98266.94
2022-11-02T06:24:33.056Z,98275.91
2022-11-02T06:27:00.537Z,98273.75
2022-11-02T06:29:28.018Z,98275.00
2022-11-02T06:31:55.404Z,98281.19
2022-11-02T06:34:22.913Z,98277.78
2022-11-02T06:36:50.550Z,98285.34
2022-11-02T06:39:17.874Z,98281.84
2022-11-02T06:41:45.328Z,98294.28
2022-11-02T06:44:12.797Z,98296.53
2022-11-02T06:46:40.207Z,98289.25
2022-11-02T06:49:07.760Z,98289.31
2022-11-02T06:51:35.217Z,98290.38
2022-11-02T06:54:08.299Z,98282.91
2022-11-02T06:56:36.293Z,98267.59
2022-11-02T06:59:03.738Z,98276.69
2022-11-02T07:01:31.318Z,98278.41
2022-11-02T07:03:58.876Z,98274.91
2022-11-02T07:06:26.383Z,98266.47
2022-11-02T07:08:55.118Z,98266.63
2022-11-02T07:11:23.453Z,98274.22
2022-11-02T07:13:50.856Z,98283.50
2022-11-02T07:16:18.426Z,98279.69
2022-11-02T07:18:45.904Z,98278.88
2022-11-02T07:21:13.448Z,98279.03
2022-11-02T07:23:40.910Z,98289.50
2022-11-02T07:26:08.361Z,98290.59
2022-11-02T07:28:38.386Z,98294.28
2022-11-02T07:31:06.208Z,98285.34
2022-11-02T07:33:33.634Z,98287.28
2022-11-02T07:36:03.595Z,98291.22
2022-11-02T07:38:31.433Z,98299.84
2022-11-02T07:40:59.137Z,98294.81
2022-11-02T07:43:26.618Z,98299.50
2022-11-02T07:46:06.198Z,98288.59
2022-11-02T07:48:33.738Z,98285.50
2022-11-02T07:51:01.173Z,98288.59
2022-11-02T07:53:28.637Z,98288.00
2022-11-02T07:55:56.284Z,98276.91
2022-11-02T07:58:23.813Z,98280.06
2022-11-02T08:00:53.844Z,98282.19
2022-11-02T08:03:24.993Z,98277.78
2022-11-02T08:05:52.556Z,98279.22
2022-11-02T08:08:22.159Z,98271.16
2022-11-02T08:10:52.286Z,98272.22
2022-11-02T08:13:23.566Z,98270.34
2022-11-02T08:15:52.416Z,98266.84
2022-11-02T08:18:25.063Z,98267.84
2022-11-02T08:20:56.374Z,98267.56
2022-11-02T08:23:24.298Z,98266.16
2022-11-02T08:25:53.388Z,98264.38
2022-11-02T08:28:31.675Z,98263.75
2022-11-02T08:30:59.628Z,98261.56
2022-11-02T08:33:27.090Z,98264.56
2022-11-02T08:35:54.619Z,98265.66
2022-11-02T08:38:24.947Z,98268.66
2022-11-02T08:40:52.558Z,98268.94
2022-11-02T08:43:19.929Z,98260.78
2022-11-02T08:46:13.880Z,98259.13
2022-11-02T08:48:35.128Z,98262.69
2022-11-02T08:51:03.014Z,98263.25
2022-11-02T08:53:30.407Z,98272.91
2022-11-02T08:55:59.202Z,98272.34
2022-11-02T08:58:26.756Z,98274.91
2022-11-02T09:00:54.674Z,98284.19
2022-11-02T09:03:27.314Z,98288.63
2022-11-02T09:06:00.389Z,98292.44
2022-11-02T09:08:29.169Z,98290.53
2022-11-02T09:11:03.160Z,98295.09
2022-11-02T09:13:30.704Z,98296.88
2022-11-02T09:15:59.675Z,98303.44
2022-11-02T09:18:27.545Z,98300.91
2022-11-02T09:20:55.159Z,98309.75
2022-11-02T09:23:23.100Z,98306.91
2022-11-02T09:25:50.902Z,98299.88
2022-11-02T09:28:18.547Z,98294.81
2022-11-02T09:30:46.016Z,98297.38
2022-11-02T09:33:13.839Z,98295.41
2022-11-02T09:35:44.877Z,98302.59
2022-11-02T09:38:12.809Z,98299.09
2022-11-02T09:40:44.744Z,98302.97
2022-11-02T09:43:32.411Z,98302.84
2022-11-02T09:46:28.697Z,98303.97
2022-11-02T09:49:06.448Z,98307.97
2022-11-02T09:51:37.509Z,98298.19
2022-11-02T09:54:39.385Z,98307.34
2022-11-02T09:57:12.028Z,98313.53
2022-11-02T09:59:41.483Z,98310.66
2022-11-02T10:02:39.315Z,98313.00
2022-11-02T10:06:04.048Z,98308.25
2022-11-02T10:08:56.387Z,98310.81
2022-11-02T10:11:42.358Z,98312.84
2022-11-02T10:14:15.935Z,98308.22
2022-11-02T10:16:58.158Z,98315.28
2022-11-02T10:19:30.260Z,98316.91
2022-11-02T10:21:58.713Z,98324.53
2022-11-02T10:24:45.435Z,98324.00
2022-11-02T10:27:37.274Z,98318.72
2022-11-02T10:30:07.022Z,98324.81
2022-11-02T10:32:36.742Z,98323.47
2022-11-02T10:35:31.282Z,98328.22
2022-11-02T10:38:23.038Z,98323.22
2022-11-02T10:41:06.767Z,98323.69
2022-11-02T10:43:52.215Z,98317.13
2022-11-02T10:46:33.862Z,98329.03
2022-11-02T10:49:06.637Z,98323.88
2022-11-02T10:51:34.177Z,98321.50
2022-11-02T10:54:01.712Z,98325.44
2022-11-02T10:56:33.555Z,98318.09
2022-11-02T10:59:14.119Z,98323.69
2022-11-02T11:02:07.108Z,98327.47
2022-11-02T11:04:35.043Z,98320.31
2022-11-02T11:07:08.054Z,98335.22
2022-11-02T11:09:55.268Z,98324.03
2022-11-02T11:12:34.334Z,98333.06
2022-11-02T11:20:41.219Z,98328.53
2022-11-02T11:23:15.752Z,98331.84
2022-11-02T11:25:53.499Z,98332.44
2022-11-02T11:28:22.629Z,98325.28
2022-11-02T11:31:14.639Z,98332.47
2022-11-02T11:33:56.458Z,98328.88
2022-11-02T11:36:35.877Z,98338.38
2022-11-02T11:39:08.103Z,98347.25
2022-11-02T11:41:41.338Z,98339.03
2022-11-02T11:44:14.758Z,98342.78
2022-11-02T11:46:49.336Z,98338.59
2022-11-02T11:49:35.920Z,98333.59
2022-11-02T11:52:20.054Z,98332.81
2022-11-02T11:58:59.821Z,98327.72
2022-11-02T12:01:27.377Z,98315.72
2022-11-02T12:04:02.510Z,98321.50
2022-11-02T12:06:57.668Z,98318.59
2022-11-02T12:09:36.889Z,98312.81
2022-11-02T12:12:23.110Z,98310.75
2022-11-02T12:15:14.100Z,98331.78
2022-11-02T12:18:19.325Z,98319.34
2022-11-02T12:21:22.815Z,98319.34
2022-11-02T12:24:01.646Z,98322.84
2022-11-02T12:26:42.530Z,98316.16
2022-11-02T12:29:40.959Z,98326.03
2022-11-02T12:32:18.389Z,98331.47
2022-11-02T12:34:57.800Z,98326.75
2022-11-02T12:37:53.807Z,98320.31
2022-11-02T12:40:30.286Z,98324.16
2022-11-02T12:43:15.748Z,98319.81
2022-11-02T12:46:13.841Z,98318.78
2022-11-02T12:49:02.529Z,98321.66
2022-11-02T12:51:37.509Z,98315.06
2022-11-02T12:54:11.474Z,98325.22
2022-11-02T12:56:49.389Z,98334.13
2022-11-02T12:59:30.836Z,98326.28
2022-11-02T13:02:11.472Z,98319.81
2022-11-02T13:04:44.619Z,98322.53
2022-11-02T13:07:15.521Z,98314.50
2022-11-02T13:09:52.498Z,98321.00
2022-11-02T13:12:23.867Z,98325.19
2022-11-02T13:14:57.789Z,98326.59
2022-11-02T13:17:42.118Z,98316.44
2022-11-02T13:20:12.998Z,98319.72
2022-11-02T13:22:43.302Z,98326.47
2022-11-02T13:25:13.955Z,98327.50
2022-11-02T13:27:50.659Z,98328.91
2022-11-02T13:30:18.963Z,98331.38
2022-11-02T13:33:10.210Z,98328.22
2022-11-02T13:35:43.595Z,98326.22
2022-11-02T13:38:29.682Z,98327.53
2022-11-02T13:41:24.678Z,98321.00
2022-11-02T13:44:27.547Z,98337.47
2022-11-02T13:47:09.310Z,98332.31
2022-11-02T13:49:41.460Z,98329.50
2022-11-02T13:52:15.049Z,98331.97
2022-11-02T13:57:36.705Z,98346.53
2022-11-02T14:00:08.409Z,98350.81
2022-11-02T14:02:42.629Z,98340.22
2022-11-02T14:05:41.606Z,98342.06
2022-11-02T14:08:17.649Z,98339.41
2022-11-02T14:11:03.506Z,98341.97
2022-11-02T14:13:54.413Z,98344.88
2022-11-02T14:16:40.735Z,98337.09
2022-11-02T14:19:20.962Z,98343.38
2022-11-02T14:21:51.362Z,98329.63
2022-11-02T14:24:34.588Z,98334.06
2022-11-02T14:27:12.214Z,98333.59
2022-11-02T14:29:42.707Z,98331.25
2022-11-02T14:32:26.826Z,98346.97
2022-11-02T14:35:22.421Z,98340.44
2022-11-02T14:38:17.688Z,98350.78
2022-11-02T14:41:16.695Z,98344.47
2022-11-02T14:43:53.163Z,98339.91
2022-11-02T14:46:38.627Z,98337.22
2022-11-02T14:49:15.848Z,98342.22
2022-11-02T14:51:45.811Z,98341.47
2022-11-02T14:54:19.048Z,98333.69
2022-11-02T14:56:49.332Z,98334.00
2022-11-02T14:59:25.619Z,98341.69
2022-11-02T15:02:22.073Z,98344.91
2022-11-02T15:05:01.758Z,98352.41
2022-11-02T15:08:09.127Z,98352.56
2022-11-02T15:10:40.957Z,98347.59
2022-11-02T15:13:20.851Z,98346.38
2022-11-02T15:15:51.209Z,98346.72
2022-11-02T15:18:30.406Z,98346.56
2022-11-02T15:21:13.052Z,98347.06
2022-11-02T15:23:46.968Z,98355.38
2022-11-02T15:26:20.049Z,98355.44
2022-11-02T15:28:51.040Z,98354.69
2022-11-02T15:31:25.914Z,98351.69
2022-11-02T15:33:58.165Z,98354.88
2022-11-02T15:36:31.594Z,98357.38
2022-11-02T15:39:03.447Z,98361.75
2022-11-02T15:41:39.871Z,98372.06
2022-11-02T15:44:44.961Z,98371.97
2022-11-02T15:47:29.471Z,98372.06
2022-11-02T15:50:15.349Z,98379.28
2022-11-02T15:53:08.712Z,98389.41
2022-11-02T15:55:47.620Z,98394.31
2022-11-02T15:58:33.499Z,98399.22
2022-11-02T16:01:16.269Z,98396.41
2022-11-02T16:03:46.724Z,98395.59
2022-11-02T16:06:15.058Z,98396.88
2022-11-02T16:08:44.260Z,98400.81
2022-11-02T16:11:17.613Z,98401.06
2022-11-02T16:14:08.116Z,98399.84
2022-11-02T16:16:46.928Z,98401.09
2022-11-02T16:19:21.800Z,98406.25
2022-11-02T16:21:50.338Z,98409.75
2022-11-02T16:24:19.248Z,98408.09
2022-11-02T16:26:48.698Z,98405.28
2022-11-02T16:29:27.789Z,98416.34
2022-11-02T16:31:55.509Z,98415.72
2022-11-02T16:34:29.818Z,98422.47
2022-11-02T16:36:58.348Z,98424.16
2022-11-02T16:39:30.434Z,98425.97
2022-11-02T16:41:59.504Z,98420.47
2022-11-02T16:44:32.305Z,98412.88
2022-11-02T16:47:16.260Z,98414.56
2022-11-02T16:49:49.711Z,98410.06
2022-11-02T16:52:17.190Z,98411.28
2022-11-02T16:54:45.337Z,98425.81
2022-11-02T16:57:12.796Z,98429.69
2022-11-02T17:00:11.552Z,98431.13
2022-11-02T17:02:41.617Z,98436.63
2022-11-02T17:05:22.748Z,98439.50
2022-11-02T17:08:04.801Z,98445.03
2022-11-02T17:10:36.343Z,98448.72
2022-11-02T17:13:07.283Z,98452.41
2022-11-02T17:15:37.535Z,98449.94
2022-11-02T17:18:08.250Z,98453.22
2022-11-02T17:20:38.517Z,98461.19
2022-11-02T17:23:09.168Z,98463.66
2022-11-02T17:25:39.383Z,98459.53
2022-11-02T17:28:35.019Z,98457.91
2022-11-02T17:31:02.671Z,98463.44
2022-11-02T17:33:32.924Z,98457.50
2022-11-02T17:36:06.818Z,98458.91
2022-11-02T17:38:34.298Z,98460.75
2022-11-02T17:41:02.175Z,98456.66
2022-11-02T17:43:29.769Z,98460.75
2022-11-02T17:46:00.968Z,98454.81
2022-11-02T17:48:31.385Z,98459.94
2022-11-02T17:51:02.227Z,98461.16
2022-11-02T17:53:29.798Z,98454.63
2022-11-02T17:55:57.630Z,98464.22
2022-11-02T17:58:25.203Z,98457.69
2022-11-02T18:00:54.742Z,98460.75
2022-11-02T18:03:25.393Z,98456.66
2022-11-02T18:05:59.799Z,98465.03
2022-11-02T18:08:28.335Z,98458.06
2022-11-02T18:10:55.899Z,98465.44
2022-11-02T18:13:24.357Z,98458.66
2022-11-02T18:15:51.830Z,98469.88
2022-11-02T18:18:19.374Z,98468.44
2022-11-02T18:20:46.868Z,98469.84
2022-11-02T18:23:16.829Z,98467.41
2022-11-02T18:25:44.423Z,98466.97
2022-11-02T18:28:11.990Z,98464.72
2022-11-02T18:30:42.980Z,98462.25
2022-11-02T18:33:13.415Z,98451.03
2022-11-02T18:35:43.103Z,98455.31
2022-11-02T18:38:10.818Z,98456.53
2022-11-02T18:40:38.392Z,98463.28
2022-11-02T18:43:06.181Z,98456.53
2022-11-02T18:45:33.775Z,98456.94
2022-11-02T18:48:01.222Z,98454.06
2022-11-02T18:50:28.768Z,98455.47
2022-11-02T18:52:56.144Z,98456.25
2022-11-02T18:55:23.800Z,98456.66
2022-11-02T18:57:51.186Z,98455.84
2022-11-02T19:00:19.107Z,98463.63
2022-11-02T19:02:46.647Z,98456.25
2022-11-02T19:05:32.780Z,98460.59
2022-11-02T19:08:19.505Z,98449.75
2022-11-02T19:10:48.375Z,98456.91
2022-11-02T19:13:16.127Z,98457.72
2022-11-02T19:15:43.676Z,98461.97
2022-11-02T19:18:11.397Z,98458.09
2022-11-02T19:20:38.900Z,98452.94
2022-11-02T19:23:06.740Z,98453.59
2022-11-02T19:25:34.458Z,98451.75
2022-11-02T19:28:04.661Z,98454.78
2022-11-02T19:30:32.508Z,98459.09
2022-11-02T19:33:00.020Z,98449.88
2022-11-02T19:35:27.499Z,98453.34
2022-11-02T19:37:57.881Z,98453.97
2022-11-02T19:40:25.509Z,98447.16
2022-11-02T19:42:52.997Z,98444.91
2022-11-02T19:45:20.558Z,98446.91
2022-11-02T19:47:48.588Z,98440.53
2022-11-02T19:50:16.277Z,98437.63
2022-11-02T19:52:46.383Z,98440.91
2022-11-02T19:55:13.959Z,98446.38
2022-11-02T19:57:41.387Z,98452.28
2022-11-02T20:00:09.608Z,98446.56
2022-11-02T20:02:37.244Z,98452.06
2022-11-02T20:05:05.175Z,98445.28
2022-11-02T20:07:32.627Z,98445.28
2022-11-02T20:10:00.137Z,98445.28
2022-11-02T20:12:27.570Z,98450.00
2022-11-02T20:14:55.068Z,98449.75
2022-11-02T20:17:32.082Z,98453.38
2022-11-02T20:20:02.896Z,98452.50
2022-11-02T20:22:30.398Z,98456.16
2022-11-02T20:24:58.109Z,98454.50
2022-11-02T20:27:25.619Z,98452.69
2022-11-02T20:29:53.166Z,98454.34
2022-11-02T20:32:22.533Z,98457.81
2022-11-02T20:34:50.168Z,98461.66
2022-11-02T20:37:17.607Z,98465.34
2022-11-02T20:39:45.055Z,98461.03
2022-11-02T20:42:12.511Z,98469.00
2022-11-02T20:44:40.008Z,98474.31
2022-11-02T20:47:07.418Z,98481.41
2022-11-02T20:49:49.875Z,98484.06
2022-11-02T20:52:18.908Z,98482.06
2022-11-02T20:54:46.388Z,98483.09
2022-11-02T20:57:13.926Z,98483.47
2022-11-02T20:59:41.519Z,98487.09
2022-11-02T21:02:12.559Z,98487.50
2022-11-02T21:04:42.542Z,98485.88
2022-11-02T21:07:11.455Z,98490.16
2022-11-02T21:09:39.670Z,98489.97
2022-11-02T21:12:33.553Z,98486.94
2022-11-02T21:15:03.969Z,98489.47
2022-11-02T21:17:36.137Z,98491.34
2022-11-02T21:22:57.891Z,98487.28
2022-11-02T21:25:27.662Z,98485.41
2022-11-02T21:27:55.981Z,98485.97
2022-11-02T21:30:25.866Z,98489.63
2022-11-02T21:32:54.541Z,98497.97
2022-11-02T21:35:23.973Z,98496.53
2022-11-02T21:37:56.701Z,98494.25
2022-11-02T21:40:24.802Z,98499.34
2022-11-02T21:42:52.563Z,98501.13
2022-11-02T21:45:25.192Z,98512.59
2022-11-02T21:47:53.834Z,98506.66
2022-11-02T21:50:22.133Z,98505.03
2022-11-02T21:52:49.981Z,98507.28
2022-11-02T21:55:17.712Z,98507.28
2022-11-02T21:57:45.331Z,98518.06
2022-11-02T22:00:13.432Z,98512.75
2022-11-02T22:02:41.222Z,98504.81
2022-11-02T22:05:08.889Z,98511.13
2022-11-02T22:07:56.487Z,98505.84
2022-11-02T22:10:24.152Z,98506.22
2022-11-02T22:13:10.397Z,98515.16
2022-11-02T22:15:38.580Z,98498.81
2022-11-02T22:18:06.233Z,98502.50
2022-11-02T22:20:33.873Z,98498.38
2022-11-02T22:23:01.321Z,98488.16
2022-11-02T22:25:29.068Z,98488.16
2022-11-02T22:27:56.540Z,98488.78
2022-11-02T22:30:24.738Z,98491.44
2022-11-02T22:32:52.191Z,98491.00
2022-11-02T22:35:19.790Z,98484.03
2022-11-02T22:38:06.018Z,98493.41
2022-11-02T22:40:33.601Z,98486.25
2022-11-02T22:43:01.122Z,98486.47
2022-11-02T22:45:28.611Z,98486.47
2022-11-02T22:47:56.100Z,98483.81
2022-11-02T22:50:26.739Z,98479.88
2022-11-02T22:52:55.471Z,98483.56
2022-11-02T22:55:22.941Z,98482.28
2022-11-02T22:57:58.777Z,98483.94
2022-11-02T23:00:27.542Z,98476.41
2022-11-02T23:02:55.037Z,98480.31
2022-11-02T23:05:22.528Z,98475.47
2022-11-02T23:07:50.013Z,98480.41
2022-11-02T23:10:36.280Z,98480.84
2022-11-02T23:13:04.114Z,98473.94
2022-11-02T23:15:31.987Z,98476.84
2022-11-02T23:17:59.962Z,98474.00
2022-11-02T23:20:27.482Z,98483.28
2022-11-02T23:23:17.111Z,98491.19
2022-11-02T23:25:44.790Z,98490.75
2022-11-02T23:28:30.785Z,98493.41
2022-11-02T23:31:17.107Z,98492.38
2022-11-02T23:33:44.631Z,98486.91
2022-11-02T23:36:13.324Z,98478.13
2022-11-02T23:39:01.891Z,98479.69
2022-11-02T23:41:31.364Z,98485.81
2022-11-02T23:44:14.877Z,98481.72
2022-11-02T23:46:44.550Z,98481.72
2022-11-02T23:49:13.369Z,98475.59
2022-11-02T23:51:59.590Z,98479.28
2022-11-02T23:54:45.819Z,98474.94
2022-11-02T23:57:13.721Z,98470.84
2022-11-02T23:59:41.342Z,98473.69
